Time;durP1;ratioP1;P1;durP2;ratioP2;P2;SDS_P1;SDS_P2;PMS_P1;PMS_P2;Temp;Humidity;BMP_temperature;BMP_pressure;BME280_temperature;BME280_humidity;BME280_pressure;Samples;Min_cycle;Max_cycle;Signal;HPM_P1;HPM_P2
2022/11/03 00:00:05;;;;;;;6.68;1.90;;;12.60;75.70;;;;;;5035702;28;20129;-79
2022/11/03 00:02:30;;;;;;;8.48;1.63;;;12.60;75.70;;;;;;5052178;28;20026;-79
2022/11/03 00:04:56;;;;;;;10.75;1.58;;;12.60;75.60;;;;;;5035759;28;20502;-79
2022/11/03 00:07:22;;;;;;;9.05;1.70;;;12.70;75.80;;;;;;5052937;28;20034;-78
2022/11/03 00:09:49;;;;;;;6.90;1.50;;;12.70;75.50;;;;;;5052120;28;20045;-79
2022/11/03 00:12:14;;;;;;;7.93;2.10;;;12.70;75.40;;;;;;5035908;28;20040;-79
2022/11/03 00:14:40;;;;;;;7.35;1.80;;;12.70;75.50;;;;;;5035629;28;20093;-79
2022/11/03 00:17:05;;;;;;;11.40;2.17;;;12.70;75.40;;;;;;5035664;28;20022;-79
2022/11/03 00:19:32;;;;;;;7.60;1.65;;;12.70;75.30;;;;;;5053025;28;20026;-79
2022/11/03 00:21:58;;;;;;;6.47;1.85;;;12.80;75.30;;;;;;5035731;28;20033;-79
2022/11/03 00:24:23;;;;;;;5.53;1.55;;;12.70;75.40;;;;;;5035695;28;20022;-81
2022/11/03 00:26:49;;;;;;;6.68;1.60;;;12.70;75.50;;;;;;5035499;28;20045;-80
2022/11/03 00:29:15;;;;;;;5.20;1.80;;;12.70;75.30;;;;;;5051980;28;20056;-79
2022/11/03 00:31:44;;;;;;;5.88;1.80;;;12.80;75.30;;;;;;5035370;28;20030;-79
2022/11/03 00:34:10;;;;;;;6.93;1.55;;;12.80;75.00;;;;;;5051892;28;20021;-79
2022/11/03 00:36:41;;;;;;;5.70;1.40;;;12.80;74.90;;;;;;5051913;28;20018;-80
2022/11/03 00:39:07;;;;;;;5.88;1.27;;;12.80;74.80;;;;;;5052856;28;20056;-79
2022/11/03 00:41:33;;;;;;;9.27;1.80;;;12.80;75.00;;;;;;5035304;28;20038;-79
2022/11/03 00:43:59;;;;;;;5.95;1.33;;;12.80;75.00;;;;;;5052799;28;20037;-79
2022/11/03 00:46:25;;;;;;;5.90;1.45;;;12.80;75.00;;;;;;5035482;28;20029;-79
2022/11/03 00:48:51;;;;;;;8.60;1.70;;;12.80;75.00;;;;;;5051752;28;20022;-79
2022/11/03 00:51:21;;;;;;;6.65;1.73;;;12.80;75.00;;;;;;5052639;28;20041;-79
2022/11/03 00:53:52;;;;;;;10.05;1.65;;;12.70;75.10;;;;;;5052819;28;20036;-79
2022/11/03 00:56:38;;;;;;;7.28;1.77;;;12.70;75.10;;;;;;5035176;28;20017;-79
2022/11/03 00:59:05;;;;;;;8.45;1.45;;;12.70;76.30;;;;;;5052661;28;20017;-79
2022/11/03 01:01:39;;;;;;;7.38;1.80;;;12.70;75.50;;;;;;5052618;28;20037;-79
2022/11/03 01:06:50;;;;;;;8.63;1.73;;;12.70;75.30;;;;;;5052861;28;20035;-79
2022/11/03 01:09:32;;;;;;;4.72;1.60;;;12.70;75.30;;;;;;5052348;28;20041;-79
2022/11/03 01:12:10;;;;;;;7.88;1.33;;;12.70;75.40;;;;;;5053618;28;20034;-79
2022/11/03 01:14:45;;;;;;;10.93;2.03;;;12.70;75.30;;;;;;5056306;28;20029;-79
2022/11/03 01:17:14;;;;;;;9.52;1.60;;;12.70;75.20;;;;;;5055194;28;20026;-80
2022/11/03 01:19:39;;;;;;;11.10;1.20;;;12.70;75.40;;;;;;5056044;28;20022;-79
2022/11/03 01:22:06;;;;;;;5.93;1.40;;;12.70;75.50;;;;;;5038585;28;20044;-79
2022/11/03 01:24:33;;;;;;;7.82;1.80;;;12.70;75.60;;;;;;5055950;28;20081;-79
2022/11/03 01:26:59;;;;;;;5.65;1.85;;;12.70;75.60;;;;;;5054959;28;20041;-79
2022/11/03 01:29:24;;;;;;;7.32;1.70;;;12.70;75.70;;;;;;5055876;28;20026;-79
2022/11/03 01:31:50;;;;;;;6.07;1.90;;;12.60;75.90;;;;;;5055736;28;20081;-79
2022/11/03 01:34:18;;;;;;;5.97;1.60;;;12.60;76.80;;;;;;5038396;28;20021;-79
2022/11/03 01:36:44;;;;;;;9.50;1.80;;;12.70;75.90;;;;;;5055723;28;20022;-79
2022/11/03 01:39:12;;;;;;;9.80;1.58;;;12.70;76.00;;;;;;5038238;28;20112;-79
2022/11/03 01:41:38;;;;;;;5.70;1.35;;;12.70;76.00;;;;;;5054670;28;20057;-79
2022/11/03 01:44:07;;;;;;;14.10;2.15;;;12.70;76.00;;;;;;5055603;28;20022;-78
2022/11/03 01:46:41;;;;;;;7.88;1.60;;;12.70;76.00;;;;;;5038062;28;20036;-78
2022/11/03 01:49:19;;;;;;;3.75;1.35;;;12.70;76.10;;;;;;5055477;28;20096;-78
2022/11/03 01:51:48;;;;;;;7.18;1.83;;;12.70;76.30;;;;;;5037964;28;20479;-78
2022/11/03 01:54:18;;;;;;;7.70;1.90;;;12.60;76.30;;;;;;5054423;28;20056;-78
2022/11/03 01:56:45;;;;;;;6.28;1.40;;;12.60;76.30;;;;;;5054373;28;20404;-78
2022/11/03 01:59:14;;;;;;;8.02;1.60;;;12.60;76.20;;;;;;5055378;28;20017;-78
2022/11/03 02:01:41;;;;;;;6.05;1.52;;;12.70;76.30;;;;;;5055254;28;20025;-78
2022/11/03 02:04:13;;;;;;;10.52;1.83;;;12.60;76.40;;;;;;5037882;28;20105;-78
2022/11/03 02:06:38;;;;;;;10.35;2.20;;;12.60;76.30;;;;;;5055200;28;20025;-78
2022/11/03 02:09:07;;;;;;;5.40;1.40;;;12.70;76.20;;;;;;5054886;28;20140;-78
2022/11/03 02:14:20;;;;;;;8.25;1.90;;;12.70;76.00;;;;;;5055248;28;20060;-78
2022/11/03 02:16:53;;;;;;;5.70;1.27;;;12.60;76.10;;;;;;5037626;28;20092;-78
2022/11/03 02:19:47;;;;;;;9.13;1.83;;;12.60;76.20;;;;;;5054931;28;20029;-78
2022/11/03 02:22:25;;;;;;;3.95;1.45;;;12.60;76.20;;;;;;5054901;28;20021;-78
2022/11/03 02:24:54;;;;;;;9.05;2.10;;;12.60;76.30;;;;;;5054875;28;20045;-78
2022/11/03 02:27:20;;;;;;;5.18;1.50;;;12.50;76.50;;;;;;5054759;28;20055;-78
2022/11/03 02:29:46;;;;;;;7.55;1.27;;;12.50;76.50;;;;;;5054659;28;20029;-78
2022/11/03 02:32:40;;;;;;;5.97;1.42;;;12.50;76.40;;;;;;5037196;28;20476;-78
2022/11/03 02:35:29;;;;;;;4.78;1.33;;;12.50;76.50;;;;;;5045282;28;20033;-78
2022/11/03 02:37:59;;;;;;;5.68;1.52;;;12.50;76.60;;;;;;5054601;28;20029;-78
2022/11/03 02:40:31;;;;;;;8.20;1.40;;;12.60;76.70;;;;;;5054505;28;20033;-78
2022/11/03 02:42:58;;;;;;;5.40;1.40;;;12.50;76.60;;;;;;5054517;28;20085;-78
2022/11/03 02:45:25;;;;;;;7.93;1.35;;;12.50;76.60;;;;;;5036862;28;20056;-78
2022/11/03 02:47:54;;;;;;;7.47;1.30;;;12.50;76.60;;;;;;5054379;28;20026;-78
2022/11/03 02:50:24;;;;;;;6.45;1.58;;;12.50;76.70;;;;;;5054255;28;20485;-79
2022/11/03 02:52:51;;;;;;;5.65;1.50;;;12.50;76.90;;;;;;5036879;28;20013;-79
2022/11/03 02:55:55;;;;;;;7.68;1.50;;;12.50;76.80;;;;;;5037064;28;20018;-79
2022/11/03 02:58:56;;;;;;;5.90;1.38;;;12.50;77.10;;;;;;5031985;28;20034;-79
2022/11/03 03:01:28;;;;;;;4.80;1.35;;;12.50;77.10;;;;;;4938825;29;20039;-79
2022/11/03 03:03:58;;;;;;;6.72;1.70;;;12.50;76.90;;;;;;5038399;28;20046;-79
2022/11/03 03:06:57;;;;;;;6.45;1.52;;;12.60;77.10;;;;;;5054072;28;20052;-79
2022/11/03 03:09:27;;;;;;;6.50;1.60;;;12.60;77.00;;;;;;5023175;28;20064;-79
2022/11/03 03:11:55;;;;;;;4.75;1.30;;;12.60;76.80;;;;;;5053923;28;20029;-79
2022/11/03 03:14:26;;;;;;;6.32;1.60;;;12.70;76.70;;;;;;5036520;28;20041;-79
2022/11/03 03:17:00;;;;;;;4.80;1.38;;;12.70;76.40;;;;;;5054058;28;20017;-79
2022/11/03 03:19:47;;;;;;;8.18;1.55;;;12.70;76.60;;;;;;5036332;28;20025;-79
2022/11/03 03:22:43;;;;;;;8.00;1.27;;;12.70;76.90;;;;;;5052847;28;20010;-78
2022/11/03 03:25:31;;;;;;;7.13;1.80;;;12.70;76.90;;;;;;5053696;28;20013;-79
2022/11/03 03:28:10;;;;;;;4.85;1.65;;;12.60;77.20;;;;;;5053800;28;20085;-79
2022/11/03 03:30:37;;;;;;;11.15;2.15;;;12.60;77.40;;;;;;5052572;28;20021;-79
2022/11/03 03:33:06;;;;;;;5.65;1.60;;;12.60;77.50;;;;;;5052579;28;20018;-79
2022/11/03 03:35:33;;;;;;;8.65;2.05;;;12.60;77.50;;;;;;5053085;28;20085;-79
2022/11/03 03:38:13;;;;;;;3.80;1.83;;;12.70;77.40;;;;;;5019987;28;20049;-79
2022/11/03 03:40:42;;;;;;;7.22;1.27;;;12.70;77.20;;;;;;5052614;28;20029;-79
2022/11/03 03:43:11;;;;;;;8.50;2.22;;;12.70;77.20;;;;;;5053412;28;20021;-80
2022/11/03 03:45:37;;;;;;;7.97;1.60;;;12.70;78.30;;;;;;5052458;28;20048;-79
2022/11/03 03:48:05;;;;;;;7.45;1.75;;;12.70;77.60;;;;;;5053330;28;20495;-79
2022/11/03 03:50:34;;;;;;;5.80;1.73;;;12.70;77.60;;;;;;5053281;28;20052;-79
2022/11/03 03:53:01;;;;;;;5.68;1.60;;;12.70;77.60;;;;;;5053319;28;20017;-79
2022/11/03 03:55:34;;;;;;;6.25;1.70;;;12.80;77.40;;;;;;5053227;28;20025;-79
2022/11/03 03:58:01;;;;;;;9.18;1.70;;;12.80;77.80;;;;;;5053389;28;20021;-79
2022/11/03 04:00:27;;;;;;;7.25;1.55;;;12.80;77.80;;;;;;5036109;28;20022;-78
2022/11/03 04:02:56;;;;;;;8.98;1.45;;;12.80;78.30;;;;;;5053209;28;20127;-78
2022/11/03 04:05:21;;;;;;;8.52;1.63;;;12.80;77.90;;;;;;5053165;28;20029;-79
2022/11/03 04:07:47;;;;;;;7.03;1.80;;;12.80;77.90;;;;;;5052887;28;20060;-78
2022/11/03 04:10:21;;;;;;;6.50;1.67;;;12.80;77.80;;;;;;5053254;28;20096;-79
2022/11/03 04:23:44;;;;;;;8.10;1.60;;;12.80;77.90;;;;;;5053233;28;20045;-78
2022/11/03 04:26:13;;;;;;;7.25;2.03;;;12.80;78.70;;;;;;5035429;28;20038;-78
2022/11/03 04:28:42;;;;;;;5.28;1.42;;;12.90;77.80;;;;;;5052943;28;20081;-78
2022/11/03 04:31:12;;;;;;;4.22;1.70;;;12.90;77.70;;;;;;5035960;28;20034;-78
2022/11/03 04:33:38;;;;;;;6.18;1.40;;;12.90;77.70;;;;;;5052753;28;20072;-78
2022/11/03 04:36:09;;;;;;;8.93;2.10;;;12.90;77.80;;;;;;5052887;28;20025;-78
2022/11/03 04:38:36;;;;;;;8.40;1.17;;;12.90;77.90;;;;;;5035466;28;20033;-78
2022/11/03 04:41:05;;;;;;;8.68;1.88;;;12.90;77.80;;;;;;5052811;28;20026;-79
2022/11/03 04:43:33;;;;;;;5.75;1.50;;;12.90;78.00;;;;;;5053007;28;20036;-79
2022/11/03 04:46:00;;;;;;;7.43;1.40;;;12.90;78.10;;;;;;5052828;28;20025;-79
2022/11/03 04:48:27;;;;;;;4.93;1.52;;;12.90;78.10;;;;;;5038853;28;20033;-79
2022/11/03 04:50:59;;;;;;;9.65;1.35;;;12.90;78.20;;;;;;5056520;28;20040;-79
2022/11/03 04:53:29;;;;;;;7.68;1.65;;;12.90;78.30;;;;;;5056568;28;20029;-79
2022/11/03 04:55:55;;;;;;;4.72;1.00;;;12.90;78.40;;;;;;5056604;28;20073;-79
2022/11/03 04:58:33;;;;;;;8.40;2.00;;;12.90;78.60;;;;;;5038970;28;20037;-79
2022/11/03 05:01:01;;;;;;;6.65;1.52;;;12.90;78.70;;;;;;5056512;28;20039;-79
2022/11/03 05:03:34;;;;;;;7.30;1.58;;;12.90;78.80;;;;;;5056365;28;20388;-79
2022/11/03 05:06:15;;;;;;;7.20;1.67;;;12.90;79.00;;;;;;5038776;28;20519;-79
2022/11/03 05:08:44;;;;;;;8.35;1.52;;;12.90;79.30;;;;;;5055899;28;20087;-78
2022/11/03 05:11:25;;;;;;;4.20;1.42;;;12.80;79.40;;;;;;5056160;28;20097;-78
2022/11/03 05:13:51;;;;;;;7.90;1.38;;;12.80;79.70;;;;;;5038784;28;20029;-78
2022/11/03 05:16:17;;;;;;;7.90;1.65;;;12.80;79.70;;;;;;5038742;28;20042;-79
2022/11/03 05:18:45;;;;;;;4.30;1.52;;;12.90;80.70;;;;;;5056085;28;20040;-78
2022/11/03 05:21:20;;;;;;;10.68;1.83;;;12.90;79.70;;;;;;5056000;28;20036;-78
2022/11/03 05:23:50;;;;;;;2.92;1.40;;;12.90;79.80;;;;;;5038983;28;20041;-78
2022/11/03 05:26:24;;;;;;;3.70;1.55;;;12.90;79.70;;;;;;5055990;28;20064;-79
2022/11/03 05:28:54;;;;;;;3.70;1.35;;;12.80;79.80;;;;;;5055948;28;20029;-79
2022/11/03 05:31:22;;;;;;;3.42;1.60;;;12.90;79.80;;;;;;5054784;28;20043;-79
2022/11/03 05:33:49;;;;;;;7.10;1.60;;;12.90;79.80;;;;;;5055805;28;20082;-79
2022/11/03 05:36:23;;;;;;;9.38;2.05;;;12.80;79.90;;;;;;5055776;28;20049;-79
2022/11/03 05:38:50;;;;;;;5.95;1.75;;;13.00;79.60;;;;;;5055752;28;20018;-78
2022/11/03 05:41:28;;;;;;;7.65;1.50;;;12.90;79.60;;;;;;5038561;28;20037;-78
2022/11/03 05:44:35;;;;;;;7.22;1.50;;;12.90;80.00;;;;;;5055639;28;20028;-78
2022/11/03 05:47:07;;;;;;;7.70;1.77;;;12.90;80.00;;;;;;5055738;28;20025;-80
2022/11/03 05:49:33;;;;;;;9.02;1.60;;;12.90;80.10;;;;;;5055590;28;20021;-80
2022/11/03 05:51:59;;;;;;;7.63;1.70;;;12.90;80.20;;;;;;5038158;28;20040;-80
2022/11/03 05:54:28;;;;;;;4.60;1.42;;;13.00;80.00;;;;;;5055417;28;20030;-80
2022/11/03 05:56:55;;;;;;;4.25;1.30;;;12.90;80.00;;;;;;5055355;28;20021;-79
2022/11/03 05:59:28;;;;;;;5.68;1.65;;;13.00;79.70;;;;;;5053909;28;20033;-80
2022/11/03 06:01:59;;;;;;;7.32;1.80;;;13.00;79.60;;;;;;5054280;28;20036;-80
2022/11/03 06:04:35;;;;;;;5.05;1.90;;;13.00;79.40;;;;;;5055302;28;20029;-80
2022/11/03 06:07:19;;;;;;;7.68;1.73;;;13.00;79.30;;;;;;5054193;28;20025;-80
2022/11/03 06:09:45;;;;;;;7.63;1.67;;;12.90;79.30;;;;;;5054662;28;20405;-79
2022/11/03 06:12:15;;;;;;;4.53;1.35;;;12.90;79.50;;;;;;5054972;28;20037;-79
2022/11/03 06:14:41;;;;;;;6.47;1.45;;;12.80;79.70;;;;;;5037533;28;20018;-79
2022/11/03 06:17:21;;;;;;;7.85;1.52;;;12.80;79.70;;;;;;5037383;28;20031;-79
2022/11/03 06:19:49;;;;;;;4.40;1.67;;;12.90;79.60;;;;;;5054952;28;20018;-79
2022/11/03 06:22:26;;;;;;;7.25;2.25;;;12.90;79.70;;;;;;5053874;28;20042;-79
2022/11/03 06:24:56;;;;;;;7.63;1.98;;;12.80;79.90;;;;;;5054907;28;20026;-79
2022/11/03 06:27:24;;;;;;;6.05;1.50;;;12.80;80.10;;;;;;5054144;28;20028;-78
2022/11/03 06:29:57;;;;;;;4.40;1.55;;;12.80;80.10;;;;;;5054660;28;20018;-78
2022/11/03 06:32:24;;;;;;;6.90;1.50;;;12.80;80.20;;;;;;5054744;28;20013;-78
2022/11/03 06:34:53;;;;;;;5.80;1.60;;;12.80;80.20;;;;;;5054807;28;20026;-78
2022/11/03 06:37:24;;;;;;;11.35;1.90;;;12.80;80.50;;;;;;5054554;28;20056;-78
2022/11/03 06:39:56;;;;;;;4.60;1.83;;;12.80;80.40;;;;;;5054701;28;20020;-78
2022/11/03 06:42:22;;;;;;;9.50;2.03;;;12.90;80.50;;;;;;5054513;28;20021;-78
2022/11/03 06:44:49;;;;;;;8.77;1.80;;;12.90;80.70;;;;;;5037118;28;20017;-78
2022/11/03 06:47:26;;;;;;;9.27;1.60;;;12.80;80.50;;;;;;5054436;28;20101;-78
2022/11/03 06:49:54;;;;;;;8.40;1.80;;;12.90;80.50;;;;;;5054318;28;20477;-80
2022/11/03 06:52:43;;;;;;;5.75;1.98;;;12.90;80.60;;;;;;5054304;28;20025;-79
2022/11/03 06:55:23;;;;;;;3.40;1.67;;;12.90;80.60;;;;;;5036072;28;20060;-79
2022/11/03 06:57:53;;;;;;;6.15;1.50;;;12.90;81.00;;;;;;5054384;28;20017;-79
2022/11/03 07:00:27;;;;;;;6.22;1.60;;;12.90;81.00;;;;;;5054161;28;20025;-78
2022/11/03 07:03:13;;;;;;;11.65;2.38;;;12.90;81.20;;;;;;5054144;28;20029;-79
2022/11/03 07:05:39;;;;;;;4.45;1.33;;;12.90;81.20;;;;;;5036550;28;20039;-79
2022/11/03 07:08:18;;;;;;;4.85;1.92;;;13.00;80.90;;;;;;5036547;28;20032;-79
2022/11/03 07:10:44;;;;;;;9.77;2.15;;;12.90;81.20;;;;;;5053040;28;20049;-79
2022/11/03 07:13:14;;;;;;;8.60;1.80;;;13.00;81.20;;;;;;5036524;28;20041;-79
2022/11/03 07:15:41;;;;;;;9.63;2.47;;;13.00;81.20;;;;;;5053941;28;20017;-79
2022/11/03 07:18:26;;;;;;;4.65;1.70;;;13.00;80.90;;;;;;5053819;28;20026;-79
2022/11/03 07:20:53;;;;;;;5.38;1.58;;;13.10;80.90;;;;;;5052805;28;20034;-80
2022/11/03 07:23:23;;;;;;;7.28;1.80;;;13.10;80.70;;;;;;5053764;28;20030;-80
2022/11/03 07:26:00;;;;;;;8.23;1.63;;;13.20;80.60;;;;;;5053788;28;20025;-80
2022/11/03 07:28:36;;;;;;;6.43;2.10;;;13.20;80.80;;;;;;5053668;28;20059;-79
2022/11/03 07:31:20;;;;;;;4.00;1.52;;;13.20;80.60;;;;;;5036242;28;20030;-79
2022/11/03 07:33:46;;;;;;;8.18;2.33;;;13.20;80.70;;;;;;5053613;28;20021;-80
2022/11/03 07:36:20;;;;;;;9.65;1.80;;;13.20;80.60;;;;;;5053718;28;20021;-80
2022/11/03 07:38:49;;;;;;;10.50;1.60;;;13.30;80.50;;;;;;5053540;28;20025;-79
2022/11/03 07:41:21;;;;;;;6.60;1.63;;;13.30;80.30;;;;;;5053489;28;20100;-79
2022/11/03 07:43:57;;;;;;;6.68;1.80;;;13.30;80.20;;;;;;5053463;28;20056;-80
2022/11/03 07:46:25;;;;;;;11.85;2.15;;;13.40;80.10;;;;;;5052501;28;20097;-80
2022/11/03 07:49:00;;;;;;;7.13;1.60;;;13.40;80.00;;;;;;5053364;28;20025;-79
2022/11/03 07:51:29;;;;;;;12.73;2.05;;;13.40;80.20;;;;;;5053272;28;20033;-79
2022/11/03 07:54:01;;;;;;;5.85;2.03;;;13.40;80.00;;;;;;5035867;28;20017;-79
2022/11/03 07:57:02;;;;;;;;;;;13.40;80.00;;;;;;5053684;28;20029;-80
2022/11/03 07:59:37;;;;;;;7.50;1.83;;;13.40;80.00;;;;;;4953985;29;19907;-80
2022/11/03 08:02:40;;;;;;;4.15;1.55;;;13.40;80.30;;;;;;5039126;28;20037;-80
2022/11/03 08:05:06;;;;;;;5.40;1.52;;;13.40;80.00;;;;;;5052179;28;20021;-80
2022/11/03 08:07:32;;;;;;;5.40;2.00;;;13.50;79.90;;;;;;5035555;28;20029;-80
2022/11/03 08:09:57;;;;;;;5.82;1.95;;;13.50;80.90;;;;;;5052871;28;20048;-80
2022/11/03 08:12:23;;;;;;;6.15;2.10;;;13.40;80.30;;;;;;5035568;28;20030;-80
2022/11/03 08:14:49;;;;;;;8.77;1.85;;;13.40;80.50;;;;;;5053064;28;20025;-79
2022/11/03 08:17:15;;;;;;;8.40;2.15;;;13.40;80.80;;;;;;5035626;28;20030;-79
2022/11/03 08:19:41;;;;;;;10.75;2.05;;;13.40;80.70;;;;;;5053046;28;20018;-79
2022/11/03 08:22:07;;;;;;;6.97;1.95;;;13.40;81.70;;;;;;5056204;28;20032;-79
2022/11/03 08:24:33;;;;;;;6.38;1.98;;;13.40;80.90;;;;;;5057115;28;20089;-79
2022/11/03 08:26:58;;;;;;;6.00;1.80;;;13.40;80.60;;;;;;5057042;28;20021;-79
2022/11/03 08:29:26;;;;;;;8.50;1.88;;;13.50;79.90;;;;;;5057021;28;20484;-79
2022/11/03 08:31:52;;;;;;;4.55;1.88;;;13.50;80.30;;;;;;5056926;28;20105;-79
2022/11/03 08:34:18;;;;;;;6.10;2.10;;;13.60;80.30;;;;;;5055952;28;20021;-79
2022/11/03 08:36:43;;;;;;;5.38;1.95;;;13.60;80.10;;;;;;5056907;28;20037;-79
2022/11/03 08:39:09;;;;;;;9.45;2.30;;;13.60;79.60;;;;;;5039418;28;20030;-79
2022/11/03 08:41:35;;;;;;;10.25;2.35;;;13.60;79.80;;;;;;5022933;28;20068;-79
2022/11/03 08:44:00;;;;;;;9.73;2.30;;;13.60;79.60;;;;;;5056741;28;20389;-80
2022/11/03 08:46:26;;;;;;;10.30;2.20;;;13.60;79.50;;;;;;5056721;28;20037;-79
2022/11/03 08:48:52;;;;;;;5.97;1.80;;;13.50;80.10;;;;;;5056679;28;20033;-79
2022/11/03 08:51:17;;;;;;;5.28;1.58;;;13.50;79.90;;;;;;5038979;28;20052;-79
2022/11/03 08:53:44;;;;;;;6.20;2.00;;;13.60;79.60;;;;;;5056588;28;20026;-78
2022/11/03 08:56:11;;;;;;;7.85;2.25;;;13.50;79.90;;;;;;5039183;28;20057;-78
2022/11/03 08:58:37;;;;;;;4.30;1.90;;;13.60;80.10;;;;;;5039108;28;20093;-78
2022/11/03 09:01:03;;;;;;;5.15;1.85;;;13.60;80.00;;;;;;5039071;28;20026;-78
2022/11/03 09:03:28;;;;;;;11.20;2.38;;;13.60;79.70;;;;;;5055494;28;20021;-78
2022/11/03 09:05:54;;;;;;;8.55;1.85;;;13.60;79.70;;;;;;5056371;28;20040;-78
2022/11/03 09:08:19;;;;;;;12.55;2.50;;;13.70;79.50;;;;;;5038778;28;20021;-78
2022/11/03 09:10:45;;;;;;;6.85;2.22;;;13.70;79.30;;;;;;5038573;28;20555;-78
2022/11/03 09:13:11;;;;;;;10.35;2.30;;;13.80;78.80;;;;;;5056239;28;20036;-78
2022/11/03 09:15:36;;;;;;;6.93;2.20;;;13.80;78.90;;;;;;5056196;28;20025;-79
2022/11/03 09:18:02;;;;;;;7.75;2.13;;;13.90;78.70;;;;;;5056155;28;20044;-78
2022/11/03 09:20:28;;;;;;;9.10;2.20;;;13.90;78.70;;;;;;5056094;28;20022;-78
2022/11/03 09:22:53;;;;;;;7.80;2.10;;;13.90;78.50;;;;;;5038479;28;20061;-78
2022/11/03 09:25:19;;;;;;;5.88;1.90;;;13.90;78.60;;;;;;5056014;28;20085;-78
2022/11/03 09:27:44;;;;;;;8.35;2.60;;;13.90;78.20;;;;;;5055976;28;20029;-79
2022/11/03 09:30:11;;;;;;;7.72;2.45;;;14.00;78.10;;;;;;5055878;28;20064;-78
2022/11/03 09:32:37;;;;;;;6.40;1.52;;;14.00;78.10;;;;;;5037714;28;20030;-78
2022/11/03 09:35:04;;;;;;;8.95;2.55;;;14.10;78.00;;;;;;5055806;28;20032;-78
2022/11/03 09:37:30;;;;;;;9.05;2.45;;;14.10;77.50;;;;;;5038252;28;20033;-78
2022/11/03 09:39:56;;;;;;;4.60;2.00;;;14.10;77.70;;;;;;5055868;28;20489;-78
2022/11/03 09:42:22;;;;;;;11.60;2.42;;;14.20;77.90;;;;;;5055662;28;20026;-79
2022/11/03 09:44:50;;;;;;;6.82;2.10;;;14.20;77.60;;;;;;5055650;28;20036;-79
2022/11/03 09:47:32;;;;;;;4.43;2.15;;;14.20;77.60;;;;;;5038155;28;20022;-80
2022/11/03 09:49:58;;;;;;;6.45;2.40;;;14.20;77.30;;;;;;5055560;28;20095;-80
2022/11/03 09:52:24;;;;;;;8.02;2.45;;;14.20;77.30;;;;;;5054542;28;20025;-80
2022/11/03 09:54:54;;;;;;;4.63;2.00;;;14.20;77.30;;;;;;5038053;28;20057;-80
2022/11/03 09:57:20;;;;;;;8.02;2.40;;;14.20;77.00;;;;;;5055547;28;20025;-80
2022/11/03 09:59:48;;;;;;;6.00;2.13;;;14.20;76.80;;;;;;5055345;28;20032;-79
2022/11/03 10:02:34;;;;;;;6.53;2.25;;;14.30;77.00;;;;;;5055321;28;20037;-79
2022/11/03 10:05:01;;;;;;;6.07;1.92;;;14.30;76.80;;;;;;5055393;28;20053;-79
2022/11/03 10:07:29;;;;;;;5.95;2.25;;;14.30;76.80;;;;;;5055163;28;20040;-79
2022/11/03 10:09:56;;;;;;;6.60;2.08;;;14.40;76.60;;;;;;5054926;28;20053;-78
2022/11/03 10:12:23;;;;;;;8.95;2.10;;;14.40;76.60;;;;;;5055122;28;20032;-80
2022/11/03 10:14:50;;;;;;;7.68;2.88;;;14.40;75.90;;;;;;5037544;28;20040;-80
2022/11/03 10:17:19;;;;;;;8.55;2.10;;;14.40;76.00;;;;;;5055087;28;20036;-79
2022/11/03 10:19:49;;;;;;;6.43;2.08;;;14.50;76.00;;;;;;5055013;28;20051;-79
2022/11/03 10:22:16;;;;;;;6.43;1.75;;;14.50;75.00;;;;;;5055015;28;20480;-80
2022/11/03 10:24:41;;;;;;;8.65;1.67;;;14.50;75.50;;;;;;5053977;28;20022;-81
2022/11/03 10:27:20;;;;;;;6.90;1.77;;;14.50;74.80;;;;;;5054780;28;20040;-79
2022/11/03 10:30:10;;;;;;;8.48;1.83;;;14.50;74.80;;;;;;5053837;28;20036;-80
2022/11/03 10:32:35;;;;;;;5.43;2.05;;;14.50;74.60;;;;;;5054828;28;20081;-78
2022/11/03 10:35:31;;;;;;;9.10;1.80;;;14.50;74.50;;;;;;5053741;28;20101;-79
2022/11/03 10:38:35;;;;;;;7.90;1.92;;;14.50;74.70;;;;;;5044177;28;20038;-79
2022/11/03 10:41:21;;;;;;;10.35;2.30;;;14.50;74.80;;;;;;5053663;28;20029;-79
2022/11/03 10:44:01;;;;;;;8.07;2.08;;;14.50;74.20;;;;;;5054026;28;20053;-78
2022/11/03 10:46:27;;;;;;;6.45;1.90;;;14.50;74.70;;;;;;5054243;28;20025;-79
2022/11/03 10:49:18;;;;;;;10.45;2.33;;;14.50;74.90;;;;;;5054386;28;20066;-80
2022/11/03 10:51:47;;;;;;;5.63;1.85;;;14.50;74.20;;;;;;5054351;28;20025;-81
2022/11/03 10:54:15;;;;;;;8.32;2.28;;;14.50;73.90;;;;;;5054305;28;20021;-80
2022/11/03 10:56:42;;;;;;;3.53;1.90;;;14.50;74.50;;;;;;5054323;28;20025;-80
2022/11/03 10:59:21;;;;;;;5.55;1.73;;;14.50;74.10;;;;;;5036897;28;20057;-80
2022/11/03 11:01:47;;;;;;;5.50;1.98;;;14.50;74.00;;;;;;5054374;28;20056;-80
2022/11/03 11:04:17;;;;;;;5.15;1.92;;;14.50;73.30;;;;;;5054173;28;20084;-80
2022/11/03 11:06:43;;;;;;;7.03;1.63;;;14.50;73.20;;;;;;5054140;28;20357;-79
2022/11/03 11:09:12;;;;;;;4.07;1.80;;;14.50;73.10;;;;;;5053801;28;20036;-78
2022/11/03 11:11:38;;;;;;;4.82;1.90;;;14.60;73.40;;;;;;5053983;28;20026;-79
2022/11/03 11:14:26;;;;;;;5.40;1.80;;;14.60;73.40;;;;;;5053960;28;20032;-79
2022/11/03 11:16:57;;;;;;;4.20;1.45;;;14.60;73.80;;;;;;5053930;28;20090;-79
2022/11/03 11:19:25;;;;;;;3.15;1.63;;;14.60;73.50;;;;;;5053942;28;20017;-79
2022/11/03 11:21:58;;;;;;;4.47;1.50;;;14.70;73.30;;;;;;5052796;28;20056;-79
2022/11/03 11:24:42;;;;;;;6.80;2.03;;;14.70;73.00;;;;;;5053935;28;20026;-79
2022/11/03 11:27:33;;;;;;;5.47;1.67;;;14.70;73.10;;;;;;5053740;28;20135;-80
2022/11/03 11:29:59;;;;;;;5.13;1.80;;;14.80;72.70;;;;;;5053646;28;20026;-79
2022/11/03 11:32:43;;;;;;;3.22;1.75;;;14.80;72.80;;;;;;5036323;28;20026;-79
2022/11/03 11:35:16;;;;;;;6.38;1.80;;;14.80;72.40;;;;;;5036098;28;20089;-79
2022/11/03 11:37:42;;;;;;;4.68;1.75;;;14.80;72.00;;;;;;5036198;28;20044;-80
2022/11/03 11:40:12;;;;;;;5.53;1.60;;;14.80;71.70;;;;;;5036225;28;20052;-79
2022/11/03 11:42:59;;;;;;;4.43;1.30;;;14.90;71.70;;;;;;5053503;28;20090;-80
2022/11/03 11:46:04;;;;;;;5.93;1.48;;;15.00;71.20;;;;;;5053468;28;20022;-80
2022/11/03 11:48:29;;;;;;;3.25;1.45;;;15.10;70.60;;;;;;5052339;28;20021;-80
2022/11/03 11:50:59;;;;;;;3.80;1.48;;;15.20;70.00;;;;;;5053317;28;20033;-80
2022/11/03 11:53:26;;;;;;;7.78;1.50;;;15.20;70.00;;;;;;5036008;28;20052;-80
2022/11/03 11:55:52;;;;;;;3.40;1.70;;;15.30;70.60;;;;;;5052976;28;20021;-79
2022/11/03 11:58:22;;;;;;;4.57;1.92;;;15.30;69.80;;;;;;5035677;28;20044;-78
2022/11/03 12:01:29;;;;;;;6.03;1.75;;;15.30;69.90;;;;;;5053236;28;20049;-79
2022/11/03 12:03:57;;;;;;;7.28;2.35;;;15.30;70.40;;;;;;5053412;28;20048;-80
2022/11/03 12:06:39;;;;;;;3.00;1.70;;;15.20;70.00;;;;;;5036097;28;20540;-79
2022/11/03 12:09:07;;;;;;;4.70;1.90;;;15.30;69.50;;;;;;5052243;28;20045;-79
2022/11/03 12:11:52;;;;;;;4.05;1.60;;;15.40;69.60;;;;;;5052162;28;20083;-80
2022/11/03 12:14:31;;;;;;;7.03;1.90;;;15.40;69.60;;;;;;5053097;28;20022;-80
2022/11/03 12:17:18;;;;;;;5.00;1.92;;;15.40;69.50;;;;;;5053268;28;20029;-80
2022/11/03 12:19:49;;;;;;;3.67;1.73;;;15.50;69.60;;;;;;5035584;28;20022;-80
2022/11/03 12:22:24;;;;;;;6.88;1.90;;;15.50;69.60;;;;;;5053070;28;20089;-80
2022/11/03 12:24:57;;;;;;;8.10;2.33;;;15.50;70.10;;;;;;5053043;28;20021;-80
2022/11/03 12:27:23;;;;;;;6.45;2.20;;;15.50;70.70;;;;;;5053023;28;20032;-80
2022/11/03 12:29:52;;;;;;;7.25;2.17;;;15.50;70.10;;;;;;5053109;28;20388;-80
2022/11/03 12:32:20;;;;;;;5.30;2.05;;;15.50;70.00;;;;;;5053039;28;20028;-79
2022/11/03 12:34:46;;;;;;;5.20;1.85;;;15.50;69.50;;;;;;5035493;28;20033;-79
2022/11/03 12:37:11;;;;;;;7.35;2.17;;;15.50;69.80;;;;;;5052933;28;20025;-80
2022/11/03 12:39:37;;;;;;;3.67;1.88;;;15.50;69.70;;;;;;5052984;28;20544;-79
2022/11/03 12:42:04;;;;;;;5.70;1.80;;;15.40;70.70;;;;;;5035669;28;20034;-80
2022/11/03 12:44:30;;;;;;;5.25;1.95;;;15.40;70.00;;;;;;5052856;28;20045;-79
2022/11/03 12:46:55;;;;;;;7.07;2.25;;;15.40;70.10;;;;;;5052826;28;20562;-79
2022/11/03 12:49:21;;;;;;;6.95;2.10;;;15.40;70.30;;;;;;5035365;28;20093;-79
2022/11/03 12:51:46;;;;;;;4.82;1.67;;;15.40;70.90;;;;;;5035299;28;20037;-79
2022/11/03 12:54:12;;;;;;;5.10;2.25;;;15.50;70.80;;;;;;5035333;28;20030;-80
2022/11/03 12:56:38;;;;;;;5.70;1.95;;;15.50;70.80;;;;;;5052722;28;20022;-79
2022/11/03 12:59:03;;;;;;;6.50;2.10;;;15.50;70.90;;;;;;5051805;28;20014;-79
2022/11/03 13:01:29;;;;;;;4.70;1.90;;;15.50;70.80;;;;;;5052668;28;20472;-79
2022/11/03 13:03:54;;;;;;;6.25;2.08;;;15.50;71.20;;;;;;5035301;28;20045;-79
2022/11/03 13:06:20;;;;;;;3.97;1.60;;;15.60;69.70;;;;;;5035144;28;20101;-79
2022/11/03 13:08:46;;;;;;;8.63;1.98;;;15.60;70.40;;;;;;5054892;28;20037;-79
2022/11/03 13:13:56;;;;;;;4.40;1.48;;;15.70;70.20;;;;;;5056488;28;20120;-79
2022/11/03 13:16:22;;;;;;;7.18;1.55;;;15.80;70.20;;;;;;5056240;28;20025;-79
2022/11/03 13:18:48;;;;;;;3.30;1.55;;;15.90;69.50;;;;;;5056159;28;20032;-79
2022/11/03 13:21:13;;;;;;;3.75;1.60;;;15.90;69.60;;;;;;5056109;28;20033;-80
2022/11/03 13:23:40;;;;;;;4.70;1.60;;;15.90;69.60;;;;;;5055033;28;20029;-79